Time;durP1;ratioP1;P1;durP2;ratioP2;P2;SDS_P1;SDS_P2;PMS_P1;PMS_P2;Temp;Humidity;BMP_temperature;BMP_pressure;BME280_temperature;BME280_humidity;BME280_pressure;Samples;Min_cycle;Max_cycle;Signal;HPM_P1;HPM_P2
2023/06/13 00:00:44;;;;;;;5.95;3.65;;;18.90;85.80;;;;;;7346489;32;20127;-55
2023/06/13 00:04:45;;;;;;;6.67;3.93;;;18.80;84.50;;;;;;7344970;32;20135;-55
2023/06/13 00:08:48;;;;;;;5.60;3.50;;;18.70;85.60;;;;;;7346316;32;20120;-56
2023/06/13 00:12:51;;;;;;;7.60;3.92;;;18.70;85.60;;;;;;7345249;32;20163;-56
2023/06/13 00:16:54;;;;;;;4.87;3.72;;;18.60;86.70;;;;;;7345623;32;20114;-56
2023/06/13 00:20:58;;;;;;;7.05;4.15;;;18.60;87.60;;;;;;7343840;32;20531;-56
2023/06/13 00:25:00;;;;;;;8.15;4.18;;;18.60;86.60;;;;;;7346563;32;20103;-56
2023/06/13 00:29:02;;;;;;;6.35;3.80;;;18.50;84.90;;;;;;7344406;32;20202;-56
2023/06/13 00:33:05;;;;;;;6.70;3.85;;;18.50;84.70;;;;;;7340450;32;20508;-55
2023/06/13 00:37:13;;;;;;;8.57;4.00;;;18.40;86.10;;;;;;7344473;32;20534;-56
2023/06/13 00:41:14;;;;;;;;;;;18.40;87.00;;;;;;7343910;32;20172;-56
2023/06/13 00:45:25;;;;;;;5.87;3.87;;;18.30;88.30;;;;;;7345717;32;20093;-55
2023/06/13 00:49:28;;;;;;;4.90;3.67;;;18.20;88.50;;;;;;7343817;32;20542;-55
2023/06/13 00:53:31;;;;;;;6.30;4.20;;;18.00;92.30;;;;;;7342766;32;20119;-55
2023/06/13 00:57:33;;;;;;;4.62;3.60;;;17.90;93.10;;;;;;7342635;32;20150;-56
2023/06/13 01:01:40;;;;;;;8.02;4.10;;;17.60;94.50;;;;;;7344540;32;20794;-55
2023/06/13 01:05:43;;;;;;;5.55;4.30;;;17.50;94.10;;;;;;7343796;32;20119;-56
2023/06/13 01:09:45;;;;;;;7.35;3.97;;;17.40;94.70;;;;;;7341885;32;20654;-55
2023/06/13 01:13:57;;;;;;;7.35;4.03;;;17.30;95.80;;;;;;7339668;32;20185;-55
2023/06/13 01:18:01;;;;;;;5.40;3.62;;;17.20;97.60;;;;;;7343399;32;20161;-55
2023/06/13 01:22:25;;;;;;;5.07;3.95;;;17.00;98.70;;;;;;7344390;32;20128;-54
2023/06/13 01:26:46;;;;;;;5.68;3.72;;;16.90;99.90;;;;;;7340696;32;20903;-55
2023/06/13 01:30:48;;;;;;;6.68;3.87;;;16.70;99.90;;;;;;7348942;32;20126;-55
2023/06/13 01:34:50;;;;;;;7.10;4.00;;;16.60;99.90;;;;;;7349067;32;20131;-55
2023/06/13 01:38:53;;;;;;;6.00;3.75;;;16.50;99.90;;;;;;7341352;32;20143;-55
2023/06/13 01:42:55;;;;;;;8.68;4.65;;;16.40;99.90;;;;;;7335379;32;20721;-54
2023/06/13 01:47:15;;;;;;;8.55;4.30;;;16.30;99.90;;;;;;7338780;32;20567;-55
2023/06/13 01:51:31;;;;;;;5.37;3.92;;;16.30;99.90;;;;;;7344437;32;20194;-55
2023/06/13 01:55:47;;;;;;;7.03;3.75;;;16.20;99.90;;;;;;7349985;32;20243;-55
2023/06/13 01:59:52;;;;;;;5.97;3.80;;;16.10;99.90;;;;;;7349581;32;20146;-55
2023/06/13 02:03:54;;;;;;;5.25;4.18;;;16.00;99.90;;;;;;7350924;32;20160;-54
2023/06/13 02:07:56;;;;;;;8.65;4.25;;;15.80;99.90;;;;;;7349790;32;20466;-54
2023/06/13 02:11:58;;;;;;;5.70;3.87;;;15.80;99.90;;;;;;7346175;32;20103;-55
2023/06/13 02:16:00;;;;;;;9.55;3.67;;;15.40;99.90;;;;;;7349890;32;20521;-55
2023/06/13 02:20:03;;;;;;;5.50;3.83;;;15.20;99.90;;;;;;7346856;32;20210;-55
2023/06/13 02:24:05;;;;;;;6.15;4.10;;;14.90;99.90;;;;;;7353833;32;20733;-54
2023/06/13 02:28:07;;;;;;;6.25;4.28;;;14.70;99.90;;;;;;7338451;32;20293;-54
2023/06/13 02:32:09;;;;;;;6.10;3.90;;;14.50;99.90;;;;;;7348579;32;20115;-55
2023/06/13 02:36:11;;;;;;;6.87;4.30;;;14.30;99.90;;;;;;7353236;32;20494;-55
2023/06/13 02:40:13;;;;;;;6.20;4.03;;;14.30;99.90;;;;;;7351224;32;20130;-55
2023/06/13 02:44:15;;;;;;;6.75;3.87;;;14.10;99.90;;;;;;7345973;32;20682;-55
2023/06/13 02:48:17;;;;;;;6.05;4.75;;;14.00;99.90;;;;;;7351158;32;20371;-55
2023/06/13 02:52:21;;;;;;;6.87;4.45;;;13.80;99.90;;;;;;7345889;32;20524;-55
2023/06/13 02:56:23;;;;;;;7.72;4.78;;;13.80;99.90;;;;;;7341532;32;20139;-54
2023/06/13 03:00:25;;;;;;;7.00;4.22;;;13.70;99.90;;;;;;7346394;32;20178;-54
2023/06/13 03:04:28;;;;;;;6.68;4.57;;;13.60;99.90;;;;;;7346455;32;20126;-55
2023/06/13 03:08:30;;;;;;;5.90;4.53;;;13.50;99.90;;;;;;7348925;32;20126;-55
2023/06/13 03:12:32;;;;;;;7.45;4.87;;;13.40;99.90;;;;;;7353523;32;20104;-55
2023/06/13 03:16:35;;;;;;;6.90;3.75;;;13.20;99.90;;;;;;7352411;32;20148;-55
2023/06/13 03:20:37;;;;;;;5.03;4.30;;;13.10;99.90;;;;;;7348317;32;20107;-54
2023/06/13 03:24:42;;;;;;;5.10;4.50;;;13.00;99.90;;;;;;7346954;32;20175;-54
2023/06/13 03:28:45;;;;;;;7.00;4.85;;;13.00;99.90;;;;;;7345457;32;20239;-54
2023/06/13 03:32:47;;;;;;;8.50;5.20;;;13.00;99.90;;;;;;7354653;32;20194;-54
2023/06/13 03:36:48;;;;;;;7.15;4.55;;;13.00;99.90;;;;;;7351089;32;20111;-55
2023/06/13 03:40:50;;;;;;;5.12;4.53;;;12.90;99.90;;;;;;7356220;32;20145;-54
2023/06/13 03:44:52;;;;;;;6.10;4.70;;;12.90;99.90;;;;;;7348774;32;20135;-55
2023/06/13 03:48:54;;;;;;;8.52;5.10;;;12.90;99.90;;;;;;7350716;32;20614;-55
2023/06/13 03:52:56;;;;;;;7.03;4.72;;;12.70;99.90;;;;;;7348971;32;20115;-55
2023/06/13 03:56:57;;;;;;;6.68;4.62;;;12.60;99.90;;;;;;7344960;32;20221;-54
2023/06/13 04:00:59;;;;;;;8.48;5.03;;;12.70;99.90;;;;;;7343342;32;20568;-55
2023/06/13 04:05:02;;;;;;;8.60;4.82;;;12.70;99.90;;;;;;7351753;32;20195;-55
2023/06/13 04:09:05;;;;;;;5.80;4.90;;;12.80;99.90;;;;;;7341905;32;20127;-55
2023/06/13 04:13:07;;;;;;;6.68;4.43;;;12.60;99.90;;;;;;7354442;32;20307;-54
2023/06/13 04:17:09;;;;;;;6.35;4.82;;;12.70;99.90;;;;;;7345334;32;20135;-55
2023/06/13 04:21:12;;;;;;;5.40;4.70;;;12.80;99.90;;;;;;7346057;32;20116;-56
2023/06/13 04:25:15;;;;;;;5.60;4.82;;;12.80;99.90;;;;;;7352897;32;20098;-55
2023/06/13 04:29:18;;;;;;;5.95;4.50;;;13.00;99.90;;;;;;7349636;32;20621;-55
2023/06/13 04:33:21;;;;;;;8.68;5.05;;;13.20;99.90;;;;;;7350812;32;20103;-55
2023/06/13 04:37:25;;;;;;;6.22;4.60;;;13.40;99.90;;;;;;7347105;32;20107;-55
2023/06/13 04:41:27;;;;;;;6.68;4.78;;;13.60;99.90;;;;;;7345063;32;20190;-55
2023/06/13 04:45:30;;;;;;;8.80;5.03;;;13.80;99.90;;;;;;7352065;32;20103;-54
2023/06/13 04:49:32;;;;;;;6.28;4.20;;;14.10;99.90;;;;;;7351001;32;20699;-56
2023/06/13 04:53:34;;;;;;;6.20;4.87;;;14.50;99.90;;;;;;7346293;32;20554;-56
2023/06/13 04:57:36;;;;;;;8.50;5.10;;;14.90;99.90;;;;;;7347594;32;20304;-57
2023/06/13 05:01:38;;;;;;;6.47;5.05;;;15.50;99.90;;;;;;7345403;32;20122;-55
2023/06/13 05:05:39;;;;;;;6.85;4.57;;;16.00;99.90;;;;;;7343247;32;20664;-56
2023/06/13 05:09:43;;;;;;;5.40;4.47;;;16.70;99.90;;;;;;7347692;32;20103;-56
2023/06/13 05:13:44;;;;;;;6.43;4.43;;;17.40;99.90;;;;;;7343171;32;20163;-57
2023/06/13 05:17:46;;;;;;;5.30;4.07;;;17.80;99.90;;;;;;7343947;32;20163;-57
2023/06/13 05:21:48;;;;;;;11.93;7.95;;;18.40;99.90;;;;;;7343886;32;20203;-57
2023/06/13 05:25:50;;;;;;;14.23;5.00;;;19.10;99.90;;;;;;7343055;32;20332;-57
2023/06/13 05:29:52;;;;;;;7.95;4.15;;;19.60;99.90;;;;;;7343672;32;20133;-57
2023/06/13 05:33:54;;;;;;;47.65;12.07;;;20.10;99.90;;;;;;7351098;32;20167;-57
2023/06/13 05:37:55;;;;;;;8.15;5.18;;;19.90;99.90;;;;;;7346106;32;20112;-57
2023/06/13 05:41:57;;;;;;;6.60;4.37;;;19.40;99.90;;;;;;7347090;32;20107;-56
2023/06/13 05:45:59;;;;;;;7.10;4.45;;;19.10;99.90;;;;;;7349856;32;20121;-57
2023/06/13 05:50:01;;;;;;;8.93;5.25;;;18.80;99.90;;;;;;7350253;32;20107;-57
2023/06/13 05:54:03;;;;;;;8.93;4.50;;;18.70;99.90;;;;;;7351200;32;20518;-56
2023/06/13 05:58:05;;;;;;;9.57;4.70;;;18.70;99.90;;;;;;7350986;32;20131;-57
2023/06/13 06:02:10;;;;;;;9.20;6.15;;;18.70;99.90;;;;;;7344639;32;20194;-56
2023/06/13 06:06:12;;;;;;;8.93;4.50;;;18.80;99.90;;;;;;7337400;32;20131;-61
2023/06/13 06:10:14;;;;;;;13.90;5.00;;;19.00;99.90;;;;;;7342088;32;20123;-61
2023/06/13 06:14:16;;;;;;;9.82;4.57;;;19.10;99.90;;;;;;7346940;32;20122;-61
2023/06/13 06:18:20;;;;;;;5.35;4.25;;;19.20;99.90;;;;;;7347372;32;20246;-61
2023/06/13 06:22:22;;;;;;;4.70;4.12;;;19.50;99.90;;;;;;7348989;32;20621;-60
2023/06/13 06:26:24;;;;;;;6.72;4.75;;;19.60;99.90;;;;;;7344238;32;20446;-61
2023/06/13 06:30:26;;;;;;;6.90;4.47;;;19.90;99.90;;;;;;7346718;32;20254;-64
2023/06/13 06:34:32;;;;;;;5.65;4.00;;;20.10;99.90;;;;;;7342460;32;20538;-62
2023/06/13 06:38:34;;;;;;;6.80;4.03;;;20.40;99.90;;;;;;7343511;32;20099;-61
2023/06/13 06:42:36;;;;;;;6.35;4.47;;;20.50;99.90;;;;;;7349860;32;20112;-62
2023/06/13 06:46:37;;;;;;;6.45;4.53;;;20.80;99.90;;;;;;7346228;32;20384;-62
2023/06/13 06:50:39;;;;;;;6.95;4.50;;;20.80;99.90;;;;;;7353471;32;20164;-58
2023/06/13 06:54:41;;;;;;;11.98;4.28;;;21.00;99.90;;;;;;7352553;32;20239;-58
2023/06/13 06:58:43;;;;;;;6.65;3.97;;;21.10;99.90;;;;;;7351801;32;20118;-58
2023/06/13 07:02:45;;;;;;;8.05;4.18;;;21.30;99.90;;;;;;7346027;32;20154;-57
2023/06/13 07:06:46;;;;;;;5.20;3.85;;;21.60;99.90;;;;;;7349887;32;20261;-57
2023/06/13 07:10:48;;;;;;;9.05;4.15;;;21.60;99.90;;;;;;7350843;32;20095;-57
2023/06/13 07:14:53;;;;;;;6.50;3.90;;;21.70;99.90;;;;;;7353976;32;20138;-58
2023/06/13 07:18:54;;;;;;;8.27;4.12;;;22.00;99.90;;;;;;7347643;32;20187;-58
2023/06/13 07:22:56;;;;;;;6.62;3.85;;;22.10;99.90;;;;;;7354347;32;20431;-57
2023/06/13 07:26:58;;;;;;;12.00;4.53;;;22.40;99.90;;;;;;7350462;32;20264;-57
2023/06/13 07:31:00;;;;;;;8.40;4.10;;;22.60;99.90;;;;;;7356181;32;20127;-58
2023/06/13 07:35:02;;;;;;;4.72;3.80;;;22.70;99.90;;;;;;7354019;32;20171;-58
2023/06/13 07:39:14;;;;;;;4.72;3.42;;;22.80;99.40;;;;;;7341282;32;20390;-57
2023/06/13 07:43:16;;;;;;;8.18;4.57;;;23.10;95.00;;;;;;7347219;32;20719;-59
2023/06/13 07:47:18;;;;;;;8.35;3.70;;;23.20;91.20;;;;;;7350134;32;20284;-57
2023/06/13 07:51:20;;;;;;;6.12;3.85;;;23.40;92.70;;;;;;7343003;32;20207;-58
2023/06/13 07:55:22;;;;;;;6.80;3.30;;;23.50;91.70;;;;;;7337100;32;20620;-57
2023/06/13 07:59:24;;;;;;;7.97;4.40;;;23.70;91.70;;;;;;7345190;32;20164;-57
2023/06/13 08:03:26;;;;;;;6.87;3.83;;;24.00;91.70;;;;;;7347456;32;20148;-57
2023/06/13 08:07:29;;;;;;;8.52;3.83;;;24.10;84.30;;;;;;7348734;32;20280;-59
2023/06/13 08:11:30;;;;;;;18.80;5.03;;;24.30;81.70;;;;;;7341958;32;20145;-58
2023/06/13 08:15:32;;;;;;;5.85;3.55;;;24.60;82.90;;;;;;7344261;32;20206;-58
2023/06/13 08:19:34;;;;;;;5.93;3.60;;;24.70;79.90;;;;;;7350942;32;20151;-58
2023/06/13 08:23:36;;;;;;;7.70;4.37;;;24.90;80.70;;;;;;7352510;32;20183;-57
2023/06/13 08:27:39;;;;;;;5.35;3.03;;;25.20;79.40;;;;;;7354314;32;20190;-57
2023/06/13 08:31:41;;;;;;;10.00;3.17;;;25.00;73.30;;;;;;7353370;32;21734;-58
2023/06/13 08:35:50;;;;;;;4.57;3.00;;;25.40;75.70;;;;;;7347549;32;20263;-57
2023/06/13 08:39:52;;;;;;;5.80;3.33;;;25.50;74.10;;;;;;7352192;32;20099;-58
2023/06/13 08:43:58;;;;;;;6.20;3.22;;;25.80;73.80;;;;;;7348989;32;20249;-57
2023/06/13 08:48:00;;;;;;;5.15;3.03;;;26.10;70.90;;;;;;7339861;32;20108;-58
2023/06/13 08:52:05;;;;;;;7.60;3.47;;;26.50;69.20;;;;;;7332639;32;20115;-57
2023/06/13 08:56:07;;;;;;;6.47;3.50;;;26.90;68.50;;;;;;7344815;32;20107;-57
2023/06/13 09:00:11;;;;;;;6.68;3.22;;;27.20;65.60;;;;;;7340130;32;20159;-57
2023/06/13 09:04:21;;;;;;;5.35;3.05;;;27.10;66.50;;;;;;7354883;32;20160;-57
2023/06/13 09:08:24;;;;;;;5.55;3.30;;;27.60;62.40;;;;;;7338607;32;20126;-57
2023/06/13 09:12:51;;;;;;;6.15;3.05;;;27.80;65.50;;;;;;7346327;32;20795;-57
2023/06/13 09:16:54;;;;;;;4.97;2.90;;;28.10;63.50;;;;;;7351491;32;20108;-58
2023/06/13 09:20:57;;;;;;;4.18;2.92;;;28.10;59.20;;;;;;7350434;32;20153;-58
2023/06/13 09:25:00;;;;;;;4.53;3.22;;;28.10;59.30;;;;;;7345932;32;20198;-57
2023/06/13 09:29:05;;;;;;;6.97;3.80;;;28.00;58.00;;;;;;7342370;32;20164;-58
2023/06/13 09:33:23;;;;;;;8.27;3.65;;;28.00;56.00;;;;;;7341267;32;20426;-58
2023/06/13 09:37:25;;;;;;;7.00;3.28;;;27.80;56.90;;;;;;7345662;32;20171;-57
2023/06/13 09:41:30;;;;;;;7.95;3.50;;;28.40;57.80;;;;;;7351445;32;20149;-57
2023/06/13 09:45:31;;;;;;;8.20;3.42;;;28.50;58.00;;;;;;7344644;32;20289;-57
2023/06/13 09:49:33;;;;;;;5.93;3.10;;;29.30;55.70;;;;;;7350785;32;20091;-58
2023/06/13 09:53:55;;;;;;;5.53;3.30;;;30.00;59.10;;;;;;7351773;32;20787;-58
2023/06/13 09:57:58;;;;;;;5.35;3.47;;;29.80;54.70;;;;;;7348746;32;20115;-58
2023/06/13 10:02:20;;;;;;;5.78;3.70;;;29.80;53.90;;;;;;7347766;32;20119;-57
2023/06/13 10:06:23;;;;;;;8.55;4.50;;;30.40;57.40;;;;;;7348435;32;20607;-57
2023/06/13 10:10:25;;;;;;;8.38;3.53;;;29.60;56.00;;;;;;7338896;32;20108;-58
2023/06/13 10:14:28;;;;;;;7.68;3.70;;;29.80;58.20;;;;;;7340693;32;20198;-57
2023/06/13 10:18:36;;;;;;;6.12;3.72;;;29.60;55.60;;;;;;7337573;32;20679;-58
2023/06/13 10:22:39;;;;;;;5.20;3.45;;;30.00;65.00;;;;;;7342202;32;20174;-56
2023/06/13 10:26:42;;;;;;;5.07;3.83;;;30.40;53.90;;;;;;7342159;32;20507;-58
2023/06/13 10:31:05;;;;;;;8.00;4.25;;;30.30;51.50;;;;;;7339317;32;20508;-57
2023/06/13 10:35:44;;;;;;;6.00;3.35;;;30.30;54.30;;;;;;7344312;32;20111;-57
2023/06/13 10:40:35;;;;;;;4.62;3.55;;;31.50;57.10;;;;;;7350693;32;20103;-57
2023/06/13 10:44:42;;;;;;;5.43;3.90;;;31.70;54.80;;;;;;7227864;32;20125;-57
2023/06/13 10:48:49;;;;;;;6.20;4.10;;;31.20;49.80;;;;;;7288735;32;20127;-57
2023/06/13 10:52:54;;;;;;;4.93;3.90;;;30.10;52.10;;;;;;7338860;32;20882;-58
2023/06/13 10:57:00;;;;;;;4.43;3.65;;;30.00;51.90;;;;;;7344273;32;20103;-58
2023/06/13 11:01:23;;;;;;;5.43;3.70;;;30.00;53.50;;;;;;7343376;32;20170;-57
2023/06/13 11:05:26;;;;;;;4.68;3.65;;;30.00;51.60;;;;;;7343331;32;20179;-55
2023/06/13 11:09:42;;;;;;;7.53;3.53;;;29.40;51.80;;;;;;7337121;32;20452;-57
2023/06/13 11:13:45;;;;;;;5.82;3.58;;;29.30;52.70;;;;;;7346106;32;20602;-56
2023/06/13 11:18:08;;;;;;;3.85;3.47;;;29.90;55.10;;;;;;7346969;32;20523;-58
2023/06/13 11:22:13;;;;;;;6.53;3.90;;;30.50;53.70;;;;;;7340210;32;20137;-57
2023/06/13 11:26:19;;;;;;;6.05;3.75;;;30.10;49.30;;;;;;7342933;32;20665;-58
2023/06/13 11:30:21;;;;;;;7.55;4.30;;;29.00;51.00;;;;;;7346199;32;20133;-59
2023/06/13 11:34:25;;;;;;;9.20;4.22;;;29.10;51.90;;;;;;7348119;32;20126;-58
2023/06/13 11:38:42;;;;;;;9.23;3.87;;;29.60;54.70;;;;;;7349835;32;20114;-60
2023/06/13 11:42:44;;;;;;;7.03;4.12;;;29.80;51.50;;;;;;7339699;32;20197;-58
2023/06/13 11:46:46;;;;;;;4.75;4.03;;;29.30;51.70;;;;;;7345617;32;20423;-58
2023/06/13 11:50:49;;;;;;;4.55;3.97;;;29.40;50.30;;;;;;7347453;32;20123;-58
2023/06/13 11:54:52;;;;;;;6.75;3.92;;;29.40;50.90;;;;;;7353904;32;20103;-58
2023/06/13 11:58:55;;;;;;;6.60;3.65;;;29.40;49.80;;;;;;7354904;32;20114;-58
2023/06/13 12:02:58;;;;;;;4.30;3.65;;;29.90;50.50;;;;;;7352174;32;20131;-58
2023/06/13 12:07:07;;;;;;;5.07;3.80;;;30.30;51.50;;;;;;7356721;32;20167;-58
2023/06/13 12:11:10;;;;;;;5.95;3.30;;;30.40;50.00;;;;;;7350156;32;20237;-58
2023/06/13 12:15:26;;;;;;;;;;;31.60;51.20;;;;;;7348021;32;20107;-58
2023/06/13 12:19:29;;;;;;;7.93;3.70;;;32.30;48.40;;;;;;7348748;32;20096;-58
2023/06/13 12:23:32;;;;;;;7.20;3.83;;;32.30;47.40;;;;;;7357892;32;20127;-58
2023/06/13 12:27:36;;;;;;;6.85;3.92;;;32.80;47.10;;;;;;7353977;32;20138;-58
2023/06/13 12:31:41;;;;;;;5.32;3.62;;;32.30;45.50;;;;;;7354442;32;20146;-58
2023/06/13 12:35:57;;;;;;;5.53;3.90;;;30.90;48.40;;;;;;7355501;32;20333;-58
2023/06/13 12:40:07;;;;;;;7.30;3.62;;;30.60;47.40;;;;;;7348628;32;20131;-58
2023/06/13 12:44:09;;;;;;;7.20;3.40;;;31.00;48.60;;;;;;7351524;32;20270;-58
2023/06/13 12:48:18;;;;;;;8.93;4.10;;;31.10;50.10;;;;;;7355964;32;20115;-58
2023/06/13 12:52:21;;;;;;;6.45;3.92;;;30.90;47.10;;;;;;7354225;32;20111;-58
2023/06/13 12:56:25;;;;;;;5.35;3.80;;;30.60;50.80;;;;;;7352703;32;20135;-58
2023/06/13 13:00:27;;;;;;;6.12;3.55;;;31.10;50.00;;;;;;7351877;32;20265;-58
2023/06/13 13:04:30;;;;;;;7.22;3.70;;;30.70;48.40;;;;;;7348172;32;20281;-56
2023/06/13 13:08:34;;;;;;;5.32;3.67;;;30.70;48.70;;;;;;7351671;32;20442;-56
2023/06/13 13:12:35;;;;;;;5.97;4.15;;;30.90;49.30;;;;;;7343774;32;20786;-56
2023/06/13 13:16:37;;;;;;;6.22;3.78;;;30.30;49.70;;;;;;7345229;32;20130;-56
2023/06/13 13:20:39;;;;;;;4.95;4.18;;;30.10;50.80;;;;;;7348217;32;21413;-57
2023/06/13 13:24:41;;;;;;;5.65;3.78;;;30.70;51.70;;;;;;7344644;32;20167;-56
2023/06/13 13:28:43;;;;;;;7.68;4.57;;;30.30;50.50;;;;;;7342170;32;20112;-59
2023/06/13 13:32:46;;;;;;;6.95;4.12;;;29.40;52.80;;;;;;7348812;32;20289;-60
2023/06/13 13:36:48;;;;;;;5.37;4.20;;;29.10;53.10;;;;;;7339589;32;20128;-60
2023/06/13 13:40:51;;;;;;;4.35;3.45;;;28.60;51.90;;;;;;7341605;32;20107;-58
2023/06/13 13:44:53;;;;;;;5.43;3.33;;;29.20;54.70;;;;;;7347849;32;20239;-57
2023/06/13 13:48:55;;;;;;;5.07;3.85;;;29.30;53.40;;;;;;7344558;32;20443;-59
2023/06/13 13:52:57;;;;;;;13.32;3.53;;;29.80;52.20;;;;;;7349145;32;20230;-56
2023/06/13 13:56:59;;;;;;;5.72;4.20;;;29.80;51.80;;;;;;7344300;32;20224;-57
2023/06/13 14:01:01;;;;;;;6.10;3.62;;;29.20;52.20;;;;;;7350668;32;20131;-59
2023/06/13 14:05:03;;;;;;;6.60;3.80;;;29.10;51.90;;;;;;7353357;32;20145;-57
2023/06/13 14:09:09;;;;;;;4.30;3.53;;;28.80;51.50;;;;;;7351563;32;20099;-56
2023/06/13 14:13:18;;;;;;;5.93;3.60;;;29.10;51.00;;;;;;7344618;32;20111;-56
2023/06/13 14:17:20;;;;;;;6.93;3.92;;;29.90;50.90;;;;;;7347926;32;20190;-57
2023/06/13 14:21:23;;;;;;;5.93;3.78;;;29.90;48.40;;;;;;7348515;32;20126;-57
2023/06/13 14:25:25;;;;;;;8.75;3.70;;;30.20;49.60;;;;;;7341754;32;20294;-57
2023/06/13 14:29:26;;;;;;;6.15;3.08;;;31.20;48.80;;;;;;7340727;32;20129;-55
2023/06/13 14:33:28;;;;;;;7.53;3.47;;;31.70;48.90;;;;;;7352695;32;20092;-55
2023/06/13 14:37:34;;;;;;;5.28;3.83;;;31.30;47.90;;;;;;7348855;32;20507;-54
2023/06/13 14:41:35;;;;;;;4.45;3.33;;;31.10;47.40;;;;;;7348646;32;20506;-55
2023/06/13 14:45:37;;;;;;;9.02;3.72;;;31.00;47.80;;;;;;7338922;32;20108;-57
2023/06/13 14:49:39;;;;;;;5.80;3.78;;;30.20;48.00;;;;;;7346179;32;20350;-57
2023/06/13 14:53:41;;;;;;;5.35;3.78;;;30.40;48.70;;;;;;7338411;32;20139;-57
2023/06/13 14:57:43;;;;;;;6.50;3.47;;;30.80;49.20;;;;;;7345323;32;20498;-57
2023/06/13 15:01:44;;;;;;;6.72;3.40;;;30.80;46.70;;;;;;7332225;32;20554;-57
2023/06/13 15:05:46;;;;;;;4.30;3.45;;;30.70;47.40;;;;;;7341798;32;20196;-57
2023/06/13 15:09:48;;;;;;;7.12;4.07;;;30.70;46.60;;;;;;7346341;32;20343;-57
2023/06/13 15:13:49;;;;;;;3.83;3.12;;;30.30;47.60;;;;;;7340806;32;20095;-57
2023/06/13 15:17:51;;;;;;;7.10;3.40;;;30.40;48.10;;;;;;7337520;32;20544;-57
2023/06/13 15:22:07;;;;;;;8.20;3.53;;;29.70;47.50;;;;;;7341540;32;20559;-57
2023/06/13 15:26:08;;;;;;;11.07;3.92;;;28.90;48.40;;;;;;7349127;32;20202;-56
2023/06/13 15:30:10;;;;;;;7.32;3.70;;;28.40;50.30;;;;;;7340210;32;20116;-58
2023/06/13 15:34:12;;;;;;;9.52;3.47;;;28.40;51.20;;;;;;7347351;32;20198;-57
2023/06/13 15:38:14;;;;;;;5.40;3.70;;;27.80;50.80;;;;;;7346812;32;20585;-57
2023/06/13 15:42:16;;;;;;;5.53;3.53;;;27.50;50.40;;;;;;7339753;32;20108;-57
2023/06/13 15:46:20;;;;;;;5.22;3.40;;;27.50;51.60;;;;;;7343509;32;20166;-57
2023/06/13 15:50:22;;;;;;;5.12;3.40;;;27.10;51.20;;;;;;7353816;32;20155;-57
2023/06/13 15:54:25;;;;;;;8.63;3.58;;;26.90;51.70;;;;;;7350441;32;20103;-57
2023/06/13 15:58:27;;;;;;;4.60;3.40;;;26.80;52.80;;;;;;7350082;32;20823;-57
2023/06/13 16:02:29;;;;;;;7.10;4.18;;;26.50;52.80;;;;;;7343048;32;20590;-57
2023/06/13 16:06:31;;;;;;;6.62;3.67;;;26.50;52.20;;;;;;7344010;32;20108;-57
2023/06/13 16:10:33;;;;;;;5.30;3.60;;;26.50;52.50;;;;;;7353200;32;20110;-57
2023/06/13 16:14:35;;;;;;;7.07;3.50;;;26.50;53.40;;;;;;7353047;32;20115;-57
2023/06/13 16:18:37;;;;;;;6.57;3.33;;;26.40;53.00;;;;;;7347351;32;20152;-57
2023/06/13 16:22:40;;;;;;;8.70;4.10;;;26.30;53.10;;;;;;7346462;32;20228;-57
2023/06/13 16:26:42;;;;;;;5.20;3.60;;;26.20;53.10;;;;;;7352642;32;20122;-57
2023/06/13 16:30:44;;;;;;;6.32;3.45;;;26.00;53.50;;;;;;7353616;32;20123;-57
2023/06/13 16:34:46;;;;;;;8.60;3.83;;;26.00;54.60;;;;;;7349031;32;20100;-56
2023/06/13 16:38:47;;;;;;;5.47;3.80;;;25.90;54.60;;;;;;7348906;32;20166;-57
2023/06/13 16:42:50;;;;;;;4.45;3.55;;;25.90;55.10;;;;;;7350420;32;20250;-57
2023/06/13 16:46:52;;;;;;;6.20;3.53;;;25.80;55.00;;;;;;7349237;32;20130;-56
2023/06/13 16:50:54;;;;;;;6.37;3.65;;;25.70;54.80;;;;;;7345047;32;20115;-57
2023/06/13 16:54:55;;;;;;;5.75;4.12;;;25.60;54.80;;;;;;7348517;32;20111;-57
2023/06/13 16:58:57;;;;;;;7.22;3.72;;;25.60;55.20;;;;;;7351312;32;20114;-57
2023/06/13 17:02:59;;;;;;;7.68;3.47;;;25.60;56.20;;;;;;7351656;32;20278;-57
2023/06/13 17:07:01;;;;;;;7.53;3.45;;;25.60;55.70;;;;;;7346281;32;20125;-57
2023/06/13 17:11:03;;;;;;;5.70;3.80;;;25.50;55.90;;;;;;7353780;32;20290;-57
2023/06/13 17:15:05;;;;;;;6.15;3.72;;;25.50;55.80;;;;;;7350236;32;20162;-57
2023/06/13 17:19:07;;;;;;;8.27;5.65;;;25.40;57.00;;;;;;7347506;32;20483;-56
2023/06/13 17:23:08;;;;;;;4.72;3.03;;;25.30;56.10;;;;;;7351310;32;20157;-57
2023/06/13 17:27:10;;;;;;;9.38;4.18;;;25.40;56.10;;;;;;7344963;32;20123;-57
2023/06/13 17:31:12;;;;;;;9.10;3.65;;;25.30;55.80;;;;;;7351924;32;20139;-58
2023/06/13 17:35:16;;;;;;;9.80;3.67;;;25.20;55.90;;;;;;7353278;32;20110;-56
2023/06/13 17:39:18;;;;;;;10.80;3.78;;;25.10;55.80;;;;;;7349505;32;20201;-56
2023/06/13 17:43:20;;;;;;;4.75;3.67;;;25.00;56.00;;;;;;7348381;32;20198;-57
2023/06/13 17:47:22;;;;;;;8.25;3.80;;;25.00;55.20;;;;;;7353520;32;20122;-56
2023/06/13 17:51:24;;;;;;;10.57;4.35;;;24.90;55.10;;;;;;7347116;32;20103;-57
2023/06/13 17:55:26;;;;;;;13.00;3.95;;;24.80;55.50;;;;;;7353792;32;20128;-56
2023/06/13 17:59:28;;;;;;;4.00;3.47;;;24.90;54.80;;;;;;7353360;32;20108;-56
2023/06/13 18:03:29;;;;;;;6.03;3.75;;;24.80;54.30;;;;;;7349196;32;20254;-57
2023/06/13 18:07:31;;;;;;;4.97;3.80;;;24.60;55.20;;;;;;7351552;32;20473;-57
2023/06/13 18:11:33;;;;;;;9.68;3.50;;;24.50;55.90;;;;;;7350209;32;20698;-57
2023/06/13 18:15:36;;;;;;;7.60;5.05;;;24.40;55.70;;;;;;7343006;32;20130;-55
2023/06/13 18:19:39;;;;;;;10.98;4.55;;;24.40;55.30;;;;;;7351926;32;20306;-56
2023/06/13 18:23:42;;;;;;;5.70;3.90;;;24.30;57.80;;;;;;7343707;32;20224;-59
2023/06/13 18:27:47;;;;;;;6.68;4.65;;;24.20;56.00;;;;;;7348275;32;20453;-57
2023/06/13 18:31:51;;;;;;;8.60;3.80;;;24.20;56.60;;;;;;7347902;32;20267;-57
2023/06/13 18:35:54;;;;;;;6.43;3.83;;;24.00;57.00;;;;;;7341152;32;20688;-58
2023/06/13 18:39:56;;;;;;;5.87;3.90;;;24.00;57.00;;;;;;7349768;32;20111;-57
2023/06/13 18:44:03;;;;;;;6.85;4.03;;;23.90;57.10;;;;;;7355656;32;20479;-57
2023/06/13 18:48:05;;;;;;;5.93;3.60;;;23.80;57.90;;;;;;7351326;32;20138;-58
2023/06/13 18:52:07;;;;;;;7.53;3.78;;;23.70;58.00;;;;;;7352186;32;20430;-57
2023/06/13 18:56:10;;;;;;;9.40;4.30;;;23.60;59.20;;;;;;7348577;32;20252;-58
2023/06/13 19:00:14;;;;;;;6.28;4.28;;;23.50;58.60;;;;;;7357529;32;20171;-58
2023/06/13 19:04:16;;;;;;;4.65;4.07;;;23.30;60.00;;;;;;7349452;32;20134;-58
2023/06/13 19:08:18;;;;;;;10.18;4.15;;;23.20;59.60;;;;;;7355755;32;20107;-57
2023/06/13 19:12:21;;;;;;;7.40;4.30;;;23.10;60.00;;;;;;7350532;32;20125;-57
2023/06/13 19:16:25;;;;;;;17.65;4.45;;;23.00;61.10;;;;;;7357675;32;20125;-59
2023/06/13 19:20:27;;;;;;;12.25;4.40;;;22.80;61.70;;;;;;7352780;32;20112;-58
2023/06/13 19:24:30;;;;;;;7.28;4.35;;;22.70;63.00;;;;;;7356767;32;20174;-58
2023/06/13 19:28:32;;;;;;;6.78;3.95;;;22.60;62.70;;;;;;7351231;32;20125;-59
2023/06/13 19:32:35;;;;;;;5.57;4.50;;;22.40;63.80;;;;;;7345253;32;20181;-58
2023/06/13 19:36:37;;;;;;;7.47;4.30;;;22.40;64.40;;;;;;7345605;32;20133;-58
2023/06/13 19:40:39;;;;;;;9.73;4.53;;;22.30;64.70;;;;;;7342059;32;20111;-59
2023/06/13 19:44:42;;;;;;;6.10;4.47;;;22.10;65.40;;;;;;7337304;32;20216;-60
2023/06/13 19:48:43;;;;;;;9.43;4.70;;;21.90;66.70;;;;;;7346701;32;20103;-59
2023/06/13 19:52:46;;;;;;;5.72;4.68;;;21.90;66.50;;;;;;7346947;32;20153;-58
2023/06/13 19:56:52;;;;;;;7.12;4.45;;;21.70;66.70;;;;;;7343016;32;20139;-58
2023/06/13 20:00:57;;;;;;;8.30;4.60;;;21.70;67.00;;;;;;7346644;32;20249;-56
2023/06/13 20:04:59;;;;;;;4.80;4.22;;;21.60;67.10;;;;;;7345893;32;20186;-55
2023/06/13 20:09:04;;;;;;;7.80;4.43;;;21.40;68.30;;;;;;7346045;32;20195;-56
2023/06/13 20:13:06;;;;;;;8.02;4.65;;;21.40;68.10;;;;;;7346796;32;20506;-56
2023/06/13 20:17:08;;;;;;;8.30;4.62;;;21.30;67.80;;;;;;7343990;32;20249;-55
2023/06/13 20:21:10;;;;;;;7.25;4.78;;;21.20;69.20;;;;;;7345396;32;20136;-55
2023/06/13 20:25:12;;;;;;;7.37;4.45;;;21.10;69.30;;;;;;7344720;32;20571;-55
2023/06/13 20:29:15;;;;;;;10.93;4.80;;;21.00;69.20;;;;;;7343676;32;20194;-55
2023/06/13 20:33:16;;;;;;;9.25;4.68;;;20.80;70.30;;;;;;7345095;32;20108;-56
2023/06/13 20:37:19;;;;;;;9.43;4.70;;;20.80;68.90;;;;;;7345449;32;20244;-56
2023/06/13 20:41:26;;;;;;;7.62;4.70;;;20.80;69.10;;;;;;7348811;32;20202;-56
2023/06/13 20:45:28;;;;;;;7.78;4.07;;;20.70;68.30;;;;;;7354215;32;21565;-56
2023/06/13 20:49:35;;;;;;;5.55;4.20;;;20.60;68.70;;;;;;7351886;32;20201;-57
2023/06/13 20:53:36;;;;;;;7.57;4.93;;;20.60;68.90;;;;;;7350236;32;20134;-55
2023/06/13 20:57:38;;;;;;;6.75;4.30;;;20.50;68.90;;;;;;7346605;32;20095;-55
2023/06/13 21:01:43;;;;;;;9.18;4.50;;;20.40;69.50;;;;;;7355582;32;20129;-55
2023/06/13 21:05:45;;;;;;;7.15;4.30;;;20.20;69.10;;;;;;7353344;32;20127;-56